createdAt,value
2019-03-21T00:01:14.408Z,47.47
2019-03-21T00:03:40.426Z,47.43
2019-03-21T00:06:06.425Z,47.50
2019-03-21T00:08:32.432Z,47.47
2019-03-21T00:10:58.454Z,47.41
2019-03-21T00:13:24.456Z,47.41
2019-03-21T00:15:50.455Z,47.39
2019-03-21T00:18:16.463Z,47.41
2019-03-21T00:20:42.460Z,47.38
2019-03-21T00:23:08.463Z,47.36
2019-03-21T00:25:34.455Z,47.36
2019-03-21T00:28:00.449Z,47.37
2019-03-21T00:30:26.503Z,47.34
2019-03-21T00:32:52.447Z,47.32
2019-03-21T00:35:18.446Z,47.33
2019-03-21T00:37:44.441Z,47.31
2019-03-21T00:40:10.440Z,47.29
2019-03-21T00:42:36.435Z,47.27
2019-03-21T00:45:02.451Z,47.31
2019-03-21T00:47:28.445Z,47.24
2019-03-21T00:49:54.438Z,47.26
2019-03-21T00:52:20.440Z,47.25
2019-03-21T00:54:46.477Z,47.25
2019-03-21T00:57:12.472Z,47.23
2019-03-21T00:59:38.468Z,47.20
2019-03-21T01:02:04.463Z,47.23
2019-03-21T01:04:30.463Z,47.20
2019-03-21T01:06:56.493Z,47.25
2019-03-21T01:09:22.479Z,47.18
2019-03-21T01:11:48.475Z,47.19
2019-03-21T01:14:14.483Z,47.17
2019-03-21T01:16:40.472Z,47.17
2019-03-21T01:19:06.476Z,47.19
2019-03-21T01:21:32.470Z,47.16
2019-03-21T01:23:58.472Z,47.13
2019-03-21T01:26:24.468Z,47.11
2019-03-21T01:28:50.469Z,47.10
2019-03-21T01:31:16.466Z,47.10
2019-03-21T01:33:42.461Z,47.12
2019-03-21T01:36:08.462Z,47.04
2019-03-21T01:38:34.455Z,47.07
2019-03-21T01:41:00.461Z,47.06
2019-03-21T01:43:26.457Z,47.09
2019-03-21T01:45:52.464Z,47.04
2019-03-21T01:48:18.472Z,47.04
2019-03-21T01:50:44.464Z,47.05
2019-03-21T01:53:10.466Z,47.02
2019-03-21T01:55:36.460Z,46.99
2019-03-21T01:58:02.464Z,47.03
2019-03-21T02:00:28.463Z,47.01
2019-03-21T02:02:54.463Z,47.02
2019-03-21T02:05:20.458Z,47.04
2019-03-21T02:07:46.458Z,47.01
2019-03-21T02:10:12.461Z,47.04
2019-03-21T02:12:38.454Z,47.09
2019-03-21T02:15:04.460Z,47.06
2019-03-21T02:17:30.455Z,47.04
2019-03-21T02:19:56.456Z,47.08
2019-03-21T02:22:22.457Z,47.11
2019-03-21T02:24:48.460Z,47.08
2019-03-21T02:27:14.450Z,47.12
2019-03-21T02:29:40.448Z,47.12
2019-03-21T02:32:06.455Z,47.15
2019-03-21T02:34:32.438Z,47.14
2019-03-21T02:36:58.438Z,47.15
2019-03-21T02:39:24.438Z,47.11
2019-03-21T02:41:50.437Z,47.14
2019-03-21T02:44:16.459Z,47.16
2019-03-21T02:46:42.448Z,47.13
2019-03-21T02:49:08.446Z,47.12
2019-03-21T02:51:34.445Z,47.15
2019-03-21T02:54:00.447Z,47.13
2019-03-21T02:56:26.439Z,47.14
2019-03-21T02:58:52.445Z,47.16
2019-03-21T03:01:18.436Z,47.14
2019-03-21T03:03:44.441Z,47.17
2019-03-21T03:06:10.447Z,47.15
2019-03-21T03:08:36.526Z,47.15
2019-03-21T03:11:02.491Z,47.17
2019-03-21T03:13:28.577Z,47.13
2019-03-21T03:15:54.608Z,47.14
2019-03-21T03:18:20.576Z,47.14
2019-03-21T03:20:46.579Z,47.14
2019-03-21T03:23:12.577Z,47.13
2019-03-21T03:25:38.613Z,47.12
2019-03-21T03:28:04.592Z,47.12
2019-03-21T03:30:30.588Z,47.12
2019-03-21T03:32:56.614Z,47.13
2019-03-21T03:35:22.601Z,47.13
2019-03-21T03:37:48.608Z,47.12
2019-03-21T03:40:14.599Z,47.09
2019-03-21T03:42:40.594Z,47.12
2019-03-21T03:45:06.593Z,47.08
2019-03-21T03:47:32.612Z,47.10
2019-03-21T03:49:58.611Z,47.07
2019-03-21T03:52:24.607Z,47.07
2019-03-21T03:54:50.602Z,47.07
2019-03-21T03:57:16.617Z,47.07
2019-03-21T03:59:42.619Z,47.05
2019-03-21T04:02:08.620Z,47.04
2019-03-21T04:04:34.651Z,47.05
2019-03-21T04:07:00.648Z,47.06
2019-03-21T04:09:26.646Z,47.02
2019-03-21T04:11:52.641Z,47.03
2019-03-21T04:14:18.643Z,47.02
2019-03-21T04:16:44.664Z,47.03
2019-03-21T04:19:10.703Z,47.04
2019-03-21T04:21:36.656Z,47.02
2019-03-21T04:24:02.669Z,47.03
2019-03-21T04:26:28.655Z,47.03
2019-03-21T04:28:54.655Z,46.97
2019-03-21T04:31:20.647Z,46.96
2019-03-21T04:33:46.644Z,46.99
2019-03-21T04:36:13.793Z,46.97
2019-03-21T04:38:39.790Z,46.97
2019-03-21T04:41:05.798Z,46.98
2019-03-21T04:43:31.797Z,46.94
2019-03-21T04:46:03.472Z,46.93
2019-03-21T04:48:23.809Z,46.96
2019-03-21T04:50:49.817Z,46.95
2019-03-21T04:53:15.815Z,46.94
2019-03-21T04:55:41.831Z,46.91
2019-03-21T04:58:07.826Z,47.00
2019-03-21T05:00:33.921Z,47.10
2019-03-21T05:02:59.924Z,47.25
2019-03-21T05:05:25.929Z,47.17
2019-03-21T05:07:51.937Z,47.16
2019-03-21T05:10:17.939Z,47.17
2019-03-21T05:12:43.935Z,47.17
2019-03-21T05:15:09.934Z,47.41
2019-03-21T05:17:35.942Z,47.49
2019-03-21T05:20:01.952Z,47.48
2019-03-21T05:22:27.958Z,47.52
2019-03-21T05:24:53.951Z,47.29
2019-03-21T05:27:19.983Z,47.41
2019-03-21T05:29:45.989Z,47.43
2019-03-21T05:32:12.030Z,47.43
2019-03-21T05:34:38.026Z,47.36
2019-03-21T05:37:04.021Z,47.52
2019-03-21T05:39:30.031Z,47.47
2019-03-21T05:41:56.067Z,47.56
2019-03-21T05:44:22.064Z,48.03
2019-03-21T05:46:48.073Z,48.11
2019-03-21T05:49:14.074Z,47.97
2019-03-21T05:51:40.067Z,47.91
2019-03-21T05:54:06.097Z,48.01
2019-03-21T05:56:32.243Z,48.11
2019-03-21T05:58:58.247Z,48.04
2019-03-21T06:01:24.323Z,48.24
2019-03-21T06:03:50.366Z,48.56
2019-03-21T06:06:17.041Z,48.34
2019-03-21T06:08:42.373Z,48.50
2019-03-21T06:11:08.383Z,48.75
2019-03-21T06:13:35.186Z,48.28
2019-03-21T06:16:01.191Z,48.57
2019-03-21T06:18:27.193Z,48.90
2019-03-21T06:20:53.197Z,48.78
2019-03-21T06:23:19.199Z,49.00
2019-03-21T06:25:45.221Z,48.53
2019-03-21T06:28:11.244Z,48.54
2019-03-21T06:30:37.362Z,48.83
2019-03-21T06:33:03.390Z,48.58
2019-03-21T06:35:29.424Z,48.45
2019-03-21T06:37:55.426Z,48.37
2019-03-21T06:40:21.446Z,48.43
2019-03-21T06:42:47.465Z,48.10
2019-03-21T06:45:13.468Z,47.89
2019-03-21T06:47:39.521Z,47.81
2019-03-21T06:50:05.531Z,47.78
2019-03-21T06:52:31.573Z,47.83
2019-03-21T06:54:59.748Z,47.76
2019-03-21T06:57:23.563Z,47.87
2019-03-21T06:59:49.558Z,47.91
2019-03-21T07:02:15.554Z,47.95
2019-03-21T07:04:41.562Z,47.84
2019-03-21T07:07:08.672Z,47.96
2019-03-21T07:09:33.600Z,47.91
2019-03-21T07:11:59.593Z,47.88
2019-03-21T07:14:25.599Z,48.03
2019-03-21T07:17:00.034Z,48.13
2019-03-21T07:19:17.596Z,48.82
2019-03-21T07:21:43.633Z,49.10
2019-03-21T07:24:09.659Z,49.07
2019-03-21T07:26:35.663Z,49.06
2019-03-21T07:29:01.667Z,49.21
2019-03-21T07:31:27.715Z,48.78
2019-03-21T07:33:53.713Z,48.85
2019-03-21T07:36:19.710Z,48.87
2019-03-21T07:38:45.734Z,48.96
2019-03-21T07:41:11.734Z,48.69
2019-03-21T07:43:37.786Z,48.88
2019-03-21T07:46:04.074Z,48.83
2019-03-21T07:48:30.069Z,48.78
2019-03-21T07:50:56.070Z,48.64
2019-03-21T07:53:22.249Z,48.68
2019-03-21T07:55:48.083Z,48.60
2019-03-21T07:58:14.105Z,48.62
2019-03-21T08:00:40.106Z,48.56
2019-03-21T08:03:06.107Z,48.57
2019-03-21T08:05:40.114Z,48.55
2019-03-21T08:07:58.115Z,48.39
2019-03-21T08:10:24.117Z,48.44
2019-03-21T08:12:50.116Z,48.44
2019-03-21T08:15:16.162Z,48.48
2019-03-21T08:17:42.148Z,48.38
2019-03-21T08:20:08.147Z,48.19
2019-03-21T08:22:34.154Z,48.02
2019-03-21T08:25:00.350Z,48.02
2019-03-21T08:27:26.184Z,48.02
2019-03-21T08:29:52.191Z,48.01
2019-03-21T08:32:18.196Z,48.07
2019-03-21T08:34:44.199Z,48.09
2019-03-21T08:37:10.199Z,48.03
2019-03-21T08:39:36.209Z,48.08
2019-03-21T08:42:02.221Z,48.16
2019-03-21T08:44:28.219Z,48.10
2019-03-21T08:46:54.228Z,48.22
2019-03-21T08:49:20.233Z,48.27
2019-03-21T08:51:46.265Z,48.31
2019-03-21T08:54:12.255Z,48.35
2019-03-21T08:56:38.244Z,48.21
2019-03-21T08:59:04.276Z,48.20
2019-03-21T09:01:30.271Z,48.29
2019-03-21T09:03:56.266Z,48.33
2019-03-21T09:06:22.265Z,48.23
2019-03-21T09:08:48.259Z,48.42
2019-03-21T09:11:14.258Z,48.30
2019-03-21T09:13:40.285Z,48.15
2019-03-21T09:16:06.279Z,48.11
2019-03-21T09:18:32.276Z,48.08
2019-03-21T09:20:58.303Z,48.33
2019-03-21T09:23:24.295Z,48.44
2019-03-21T09:25:51.401Z,48.30
2019-03-21T09:28:16.298Z,48.40
2019-03-21T09:30:42.309Z,48.31
2019-03-21T09:33:08.312Z,48.13
2019-03-21T09:35:34.340Z,48.36
2019-03-21T09:38:00.335Z,48.33
2019-03-21T09:40:26.333Z,48.24
2019-03-21T09:42:52.349Z,48.11
2019-03-21T09:45:18.346Z,48.27
2019-03-21T09:47:44.395Z,48.35
2019-03-21T09:50:10.407Z,48.29
2019-03-21T09:52:36.442Z,48.20
2019-03-21T09:55:02.481Z,48.11
2019-03-21T09:57:28.470Z,48.11
2019-03-21T09:59:54.473Z,48.29
2019-03-21T10:02:20.620Z,48.24
2019-03-21T10:04:46.556Z,48.19
2019-03-21T10:07:12.582Z,48.17
2019-03-21T10:09:38.583Z,48.03
2019-03-21T10:12:04.589Z,47.89
2019-03-21T10:14:30.582Z,47.95
2019-03-21T10:16:56.577Z,47.84
2019-03-21T10:19:22.582Z,47.88
2019-03-21T10:21:48.610Z,47.82
2019-03-21T10:24:14.617Z,47.76
2019-03-21T10:26:40.617Z,47.72
2019-03-21T10:29:06.616Z,47.73
2019-03-21T10:31:32.617Z,47.71
2019-03-21T10:33:58.620Z,47.70
2019-03-21T10:36:24.624Z,47.68
2019-03-21T10:38:50.624Z,47.70
2019-03-21T10:41:16.640Z,47.70
2019-03-21T10:43:42.650Z,47.71
2019-03-21T10:46:08.643Z,47.62
2019-03-21T10:48:34.639Z,47.60
2019-03-21T10:51:00.704Z,47.56
2019-03-21T10:53:26.718Z,47.57
2019-03-21T10:55:52.728Z,47.56
2019-03-21T10:58:18.739Z,47.54
2019-03-21T11:00:44.728Z,47.50
2019-03-21T11:03:10.750Z,47.51
2019-03-21T11:05:36.738Z,47.52
2019-03-21T11:08:02.732Z,47.51
2019-03-21T11:10:28.790Z,47.50
2019-03-21T11:12:54.790Z,47.46
2019-03-21T11:15:20.798Z,47.46
2019-03-21T11:17:46.803Z,47.46
2019-03-21T11:20:12.828Z,47.41
2019-03-21T11:22:38.830Z,47.40
2019-03-21T11:25:04.824Z,47.39
2019-03-21T11:27:30.822Z,47.30
2019-03-21T11:29:56.820Z,47.25
2019-03-21T11:32:22.827Z,47.21
2019-03-21T11:34:48.825Z,47.17
2019-03-21T11:37:14.828Z,47.14
2019-03-21T11:39:40.841Z,47.12
2019-03-21T11:42:06.866Z,47.07
2019-03-21T11:44:32.878Z,47.07
2019-03-21T11:46:58.872Z,47.01
2019-03-21T11:49:24.878Z,47.09
2019-03-21T11:51:50.863Z,47.24
2019-03-21T11:54:16.861Z,47.14
2019-03-21T11:56:42.852Z,47.17
2019-03-21T11:59:08.890Z,47.15
2019-03-21T12:01:34.889Z,47.15
2019-03-21T12:04:00.890Z,47.15
2019-03-21T12:06:26.883Z,47.15
2019-03-21T12:08:52.905Z,47.21
2019-03-21T12:11:21.190Z,47.24
2019-03-21T12:13:44.910Z,47.34
2019-03-21T12:16:10.903Z,47.32
2019-03-21T12:18:36.899Z,47.32
2019-03-21T12:21:02.895Z,47.27
2019-03-21T12:23:28.918Z,47.03
2019-03-21T12:25:54.922Z,47.15
2019-03-21T12:28:20.921Z,47.17
2019-03-21T12:30:46.954Z,47.08
2019-03-21T12:33:12.952Z,47.01
2019-03-21T12:35:38.958Z,47.00
2019-03-21T12:38:04.963Z,46.95
2019-03-21T12:40:30.954Z,46.69
2019-03-21T12:42:56.956Z,46.68
2019-03-21T12:45:22.954Z,46.75
2019-03-21T12:47:48.999Z,46.81
2019-03-21T12:50:14.993Z,46.93
2019-03-21T12:52:41.783Z,47.07
2019-03-21T12:55:07.008Z,47.04
2019-03-21T12:57:33.030Z,46.83
2019-03-21T12:59:59.030Z,46.68
2019-03-21T13:02:32.325Z,46.40
2019-03-21T13:04:51.051Z,46.37
2019-03-21T13:07:17.314Z,46.45
2019-03-21T13:09:43.069Z,46.31
2019-03-21T13:12:09.068Z,46.22
2019-03-21T13:14:35.094Z,46.34
2019-03-21T13:17:01.184Z,46.45
2019-03-21T13:19:27.185Z,46.38
2019-03-21T13:21:53.182Z,46.24
2019-03-21T13:24:19.630Z,46.29
2019-03-21T13:26:45.273Z,46.29
2019-03-21T13:29:11.272Z,46.07
2019-03-21T13:31:38.730Z,46.16
2019-03-21T13:34:03.316Z,46.11
2019-03-21T13:36:29.316Z,45.93
2019-03-21T13:38:55.319Z,45.97
2019-03-21T13:41:21.402Z,46.06
2019-03-21T13:43:47.407Z,45.82
2019-03-21T13:46:13.441Z,45.67
2019-03-21T13:48:39.439Z,45.88
2019-03-21T13:51:05.443Z,45.69
2019-03-21T13:53:31.444Z,45.64
2019-03-21T13:55:57.443Z,46.07
2019-03-21T13:58:23.454Z,46.19
2019-03-21T14:00:49.457Z,46.21
2019-03-21T14:03:24.569Z,46.29
2019-03-21T14:05:41.467Z,46.32
2019-03-21T14:08:07.475Z,46.42
2019-03-21T14:10:33.474Z,46.39
2019-03-21T14:12:59.472Z,46.08
2019-03-21T14:15:25.471Z,45.98
2019-03-21T14:17:51.474Z,45.88
2019-03-21T14:20:17.496Z,46.27
2019-03-21T14:22:43.500Z,46.28
2019-03-21T14:25:09.504Z,45.90
2019-03-21T14:27:35.502Z,46.27
2019-03-21T14:30:02.360Z,46.29
2019-03-21T14:32:27.527Z,46.34
2019-03-21T14:34:53.548Z,46.05
2019-03-21T14:37:19.554Z,46.17
2019-03-21T14:39:45.547Z,46.42
2019-03-21T14:42:11.553Z,46.38
2019-03-21T14:44:37.560Z,46.35
2019-03-21T14:47:03.605Z,46.27
2019-03-21T14:49:29.598Z,46.29
2019-03-21T14:51:55.616Z,46.31
2019-03-21T14:54:21.734Z,46.13
2019-03-21T14:56:47.737Z,46.07
2019-03-21T14:59:13.737Z,46.12
2019-03-21T15:01:40.807Z,46.22
2019-03-21T15:04:05.722Z,46.08
2019-03-21T15:06:31.741Z,46.22
2019-03-21T15:08:57.765Z,46.22
2019-03-21T15:11:23.761Z,46.14
2019-03-21T15:13:49.764Z,46.15
2019-03-21T15:16:15.853Z,46.11
2019-03-21T15:18:41.860Z,45.79
2019-03-21T15:21:07.854Z,45.67
2019-03-21T15:23:40.678Z,45.82
2019-03-21T15:25:59.860Z,45.69
2019-03-21T15:28:25.861Z,45.35
2019-03-21T15:30:51.855Z,45.27
2019-03-21T15:33:18.071Z,45.50
2019-03-21T15:35:44.071Z,45.39
2019-03-21T15:38:10.063Z,45.37
2019-03-21T15:40:36.070Z,45.66
2019-03-21T15:43:02.109Z,45.55
2019-03-21T15:45:28.072Z,45.53
2019-03-21T15:47:54.137Z,45.65
2019-03-21T15:50:20.161Z,45.64
2019-03-21T15:52:46.155Z,45.67
2019-03-21T15:55:12.162Z,45.69
2019-03-21T15:57:38.192Z,45.64
2019-03-21T16:00:04.192Z,45.55
2019-03-21T16:02:30.212Z,45.48
2019-03-21T16:04:56.206Z,45.62
2019-03-21T16:07:22.300Z,45.53
2019-03-21T16:09:48.295Z,45.74
2019-03-21T16:12:14.297Z,45.57
2019-03-21T16:14:40.343Z,45.38
2019-03-21T16:17:06.352Z,45.46
2019-03-21T16:19:32.364Z,45.65
2019-03-21T16:21:58.374Z,45.69
2019-03-21T16:24:24.384Z,45.92
2019-03-21T16:26:50.379Z,46.16
2019-03-21T16:29:16.490Z,46.40
2019-03-21T16:31:42.484Z,46.55
2019-03-21T16:34:08.479Z,46.70
2019-03-21T16:36:34.572Z,46.78
2019-03-21T16:39:00.559Z,46.97
2019-03-21T16:41:26.791Z,47.01
2019-03-21T16:43:52.785Z,47.35
2019-03-21T16:46:18.820Z,47.27
2019-03-21T16:48:44.903Z,47.15
2019-03-21T16:51:11.061Z,47.09
2019-03-21T16:53:37.064Z,47.12
2019-03-21T16:56:03.066Z,47.06
2019-03-21T16:58:29.064Z,46.84
2019-03-21T17:00:55.250Z,46.94
2019-03-21T17:03:21.266Z,46.86
2019-03-21T17:05:47.288Z,46.81
2019-03-21T17:08:13.288Z,46.80
2019-03-21T17:10:39.331Z,46.74
2019-03-21T17:13:06.503Z,46.64
2019-03-21T17:15:34.326Z,47.29
2019-03-21T17:18:00.328Z,47.33
2019-03-21T17:20:26.519Z,47.24
2019-03-21T17:22:52.547Z,47.24
2019-03-21T17:25:18.520Z,47.18
2019-03-21T17:27:44.544Z,47.30
2019-03-21T17:30:10.601Z,47.25
2019-03-21T17:32:36.600Z,47.26
2019-03-21T17:35:02.702Z,47.20
2019-03-21T17:37:28.703Z,47.22
2019-03-21T17:39:54.727Z,47.00
2019-03-21T17:42:21.162Z,46.81
2019-03-21T17:44:47.020Z,46.89
2019-03-21T17:47:13.038Z,46.95
2019-03-21T17:49:39.039Z,47.00
2019-03-21T17:52:05.071Z,47.04
2019-03-21T17:54:40.904Z,47.06
2019-03-21T17:56:57.154Z,47.08
2019-03-21T17:59:23.152Z,47.14
2019-03-21T18:01:49.151Z,47.12
2019-03-21T18:04:15.544Z,47.18
2019-03-21T18:06:41.540Z,47.13
2019-03-21T18:09:07.546Z,47.39
2019-03-21T18:11:33.556Z,47.29
2019-03-21T18:13:59.657Z,47.38
2019-03-21T18:16:25.677Z,47.56
2019-03-21T18:18:51.716Z,47.85
2019-03-21T18:21:17.720Z,47.72
2019-03-21T18:23:46.858Z,47.78
2019-03-21T18:26:12.799Z,47.59
2019-03-21T18:28:38.799Z,47.66
2019-03-21T18:31:04.804Z,47.76
2019-03-21T18:33:30.811Z,48.11
2019-03-21T18:35:56.859Z,48.04
2019-03-21T18:38:22.853Z,47.78
2019-03-21T18:40:48.851Z,47.98
2019-03-21T18:43:14.875Z,47.83
2019-03-21T18:45:40.875Z,47.91
2019-03-21T18:48:06.876Z,48.04
2019-03-21T18:50:32.910Z,48.20
2019-03-21T18:52:58.964Z,47.97
2019-03-21T18:55:24.994Z,48.27
2019-03-21T18:57:50.987Z,48.07
2019-03-21T19:00:16.984Z,48.11
2019-03-21T19:02:43.014Z,49.02
2019-03-21T19:05:08.997Z,49.07
2019-03-21T19:07:35.004Z,49.61
2019-03-21T19:10:01.002Z,49.39
2019-03-21T19:12:27.039Z,48.72
2019-03-21T19:14:53.144Z,48.91
2019-03-21T19:17:19.163Z,48.76
2019-03-21T19:19:45.160Z,48.39
2019-03-21T19:22:11.163Z,48.23
2019-03-21T19:24:37.235Z,48.23
2019-03-21T19:27:03.236Z,48.16
2019-03-21T19:29:29.241Z,48.09
2019-03-21T19:31:55.317Z,48.02
2019-03-21T19:34:22.944Z,48.15
2019-03-21T19:36:49.782Z,48.20
2019-03-21T19:39:18.879Z,48.10
2019-03-21T19:41:44.878Z,47.97
2019-03-21T19:44:11.349Z,48.13
2019-03-21T19:46:37.342Z,48.15
2019-03-21T19:49:04.625Z,48.27
2019-03-21T19:51:31.257Z,48.04
2019-03-21T19:53:57.922Z,48.22
2019-03-21T19:56:23.929Z,48.37
2019-03-21T19:58:51.892Z,48.28
2019-03-21T20:01:19.968Z,48.18
2019-03-21T20:03:45.954Z,48.24
2019-03-21T20:06:11.951Z,48.27
2019-03-21T20:08:37.950Z,48.31
2019-03-21T20:11:04.184Z,48.43
2019-03-21T20:13:32.105Z,48.08
2019-03-21T20:15:59.821Z,48.20
2019-03-21T20:18:28.003Z,48.43
2019-03-21T20:20:54.613Z,48.18
2019-03-21T20:23:21.269Z,48.15
2019-03-21T20:25:47.259Z,48.28
2019-03-21T20:28:13.298Z,48.46
2019-03-21T20:30:39.316Z,48.43
2019-03-21T20:33:05.324Z,48.51
2019-03-21T20:35:31.340Z,48.31
2019-03-21T20:37:57.340Z,48.37
2019-03-21T20:40:23.351Z,48.37
2019-03-21T20:42:49.354Z,48.45
2019-03-21T20:45:15.418Z,48.33
2019-03-21T20:47:41.402Z,48.45
2019-03-21T20:50:07.385Z,48.47
2019-03-21T20:52:33.393Z,48.24
2019-03-21T20:54:59.640Z,48.43
2019-03-21T20:57:25.643Z,48.41
2019-03-21T20:59:51.644Z,48.15
2019-03-21T21:02:17.651Z,48.02
2019-03-21T21:04:43.674Z,47.98
2019-03-21T21:07:09.674Z,48.05
2019-03-21T21:09:35.665Z,48.00
2019-03-21T21:12:01.673Z,48.02
2019-03-21T21:14:27.677Z,48.00
2019-03-21T21:16:53.681Z,47.96
2019-03-21T21:19:19.677Z,47.96
2019-03-21T21:21:45.702Z,47.87
2019-03-21T21:24:11.700Z,47.90
2019-03-21T21:26:37.701Z,47.89
2019-03-21T21:29:03.702Z,47.86
2019-03-21T21:31:29.690Z,47.85
2019-03-21T21:33:55.698Z,47.82
2019-03-21T21:36:22.382Z,47.80
2019-03-21T21:38:47.696Z,47.79
2019-03-21T21:41:13.687Z,47.75
2019-03-21T21:43:39.692Z,47.77
2019-03-21T21:46:05.691Z,47.74
2019-03-21T21:48:31.690Z,47.74
2019-03-21T21:50:57.690Z,47.72
2019-03-21T21:53:23.682Z,47.72
2019-03-21T21:55:49.684Z,47.64
2019-03-21T21:58:15.676Z,47.68
2019-03-21T22:00:41.698Z,47.65
2019-03-21T22:03:07.691Z,47.63
2019-03-21T22:05:33.684Z,47.62
2019-03-21T22:07:59.685Z,47.61
2019-03-21T22:10:25.679Z,47.59
2019-03-21T22:12:51.683Z,47.58
2019-03-21T22:15:17.680Z,47.57
2019-03-21T22:17:43.673Z,47.53
2019-03-21T22:20:09.667Z,47.53
2019-03-21T22:22:35.688Z,47.51
2019-03-21T22:25:01.682Z,47.50
2019-03-21T22:27:27.680Z,47.49
2019-03-21T22:29:53.680Z,47.46
2019-03-21T22:32:19.683Z,47.45
2019-03-21T22:34:45.676Z,47.45
2019-03-21T22:37:11.676Z,47.44
2019-03-21T22:39:37.679Z,47.42
2019-03-21T22:42:03.681Z,47.40
2019-03-21T22:44:29.678Z,47.38
2019-03-21T22:46:55.672Z,47.37
2019-03-21T22:49:21.710Z,47.38
2019-03-21T22:51:47.708Z,47.32
2019-03-21T22:54:13.714Z,47.33
2019-03-21T22:56:41.487Z,47.32
2019-03-21T22:59:05.741Z,47.29
2019-03-21T23:01:31.740Z,47.30
2019-03-21T23:03:57.730Z,47.27
2019-03-21T23:06:23.738Z,47.26
2019-03-21T23:08:49.735Z,47.22
2019-03-21T23:11:15.731Z,47.21
2019-03-21T23:13:41.727Z,47.21
2019-03-21T23:16:07.731Z,47.22
2019-03-21T23:18:33.726Z,47.17
2019-03-21T23:20:59.738Z,47.18
2019-03-21T23:23:25.739Z,47.16
2019-03-21T23:25:51.737Z,47.17
2019-03-21T23:28:17.739Z,47.13
2019-03-21T23:30:43.733Z,47.20
2019-03-21T23:33:09.730Z,47.13
2019-03-21T23:35:35.728Z,47.15
2019-03-21T23:38:01.732Z,47.10
2019-03-21T23:40:27.726Z,47.07
2019-03-21T23:42:53.763Z,47.07
2019-03-21T23:45:20.092Z,47.06
2019-03-21T23:47:45.733Z,47.08
2019-03-21T23:50:11.745Z,47.12
2019-03-21T23:52:37.736Z,47.06
2019-03-21T23:55:03.731Z,47.00
2019-03-21T23:57:29.730Z,46.98
2019-03-21T23:59:55.726Z,46.97
